Latest Weather Observations for Moorabbin Airport

IDV60801

Issued at 6:03 am EST Tuesday 26 July 2016 (issued every 30 minutes, with the page automatically refreshed every 10 minutes)

About weather observations | Map of weather stations | Latest weather observations for VIC | Other Formats
Station Details ID: 086077 Name: MOORABBIN AIRPORT Lat: -37.98 Lon: 145.10 Height: 12.1 m
Data from the previous 72 hours. | See also: Recent months at Moorabbin Airport
Date/Time
EST
Temp
°C
App
Temp
°C
Dew
Point
°C
Rel
Hum
%
Delta-T
°C
Wind Press
QNH
hPa
Press
MSL
hPa
Rain since
9am
mm
Dir  Spd
km/h
Gust
km/h
Spd
kts
Gust
kts
26/06:00am 6.6 1.6 1.3 69 2.1 N 17 20 9 11 1010.6 1010.6 6.8
26/05:30am 7.9 2.0 1.5 64 2.6 NW 22 30 12 16 1010.4 1010.4 6.8
26/05:00am 7.7 2.1 1.5 65 2.5 NW 20 28 11 15 1010.0 1010.0 6.8
26/04:30am 7.5 2.0 1.6 66 2.4 NW 20 30 11 16 1009.6 1009.6 6.8
26/04:00am 7.7 1.7 1.3 64 2.6 NW 22 28 12 15 1009.4 1009.4 6.8
26/03:30am 8.0 2.1 1.4 63 2.7 NW 22 32 12 17 1009.5 1009.5 6.8
26/03:00am 8.2 1.9 1.6 63 2.7 NW 24 39 13 21 1009.3 1009.3 6.8
26/02:30am 8.1 2.2 1.5 63 2.7 NW 22 32 12 17 1009.1 1009.1 6.8
26/02:00am 8.5 1.8 1.6 62 2.8 NW 26 43 14 23 1009.0 1009.0 6.8
26/01:30am 8.4 2.9 1.8 63 2.7 NW 20 30 11 16 1008.7 1008.7 6.8
26/01:00am 8.2 2.3 1.8 64 2.6 NW 22 33 12 18 1008.4 1008.4 6.8
26/12:30am 8.1 2.6 2.1 66 2.5 NW 20 32 11 17 1008.4 1008.4 6.8
26/12:00am 8.1 2.3 2.1 66 2.5 NW 22 32 12 17 1008.2 1008.2 6.8
 
Date/Time
EST
Temp
°C
App
Temp
°C
Dew
Point
°C
Rel
Hum
%
Delta-T
°C
Wind Press
QNH
hPa
Press
MSL
hPa
Rain since
9am
mm
Dir  Spd
km/h
Gust
km/h
Spd
kts
Gust
kts
25/11:30pm 8.6 1.3 2.2 64 2.7 WNW 30 46 16 25 1007.8 1007.8 6.8
25/11:00pm 8.3 1.4 2.3 66 2.5 WNW 28 39 15 21 1007.7 1007.7 6.8
25/10:30pm 8.3 2.1 2.3 66 2.5 WNW 24 39 13 21 1007.2 1007.2 6.8
25/10:00pm 8.5 1.6 2.3 65 2.6 NW 28 43 15 23 1006.7 1006.7 6.8
25/09:47pm 9.1 1.8 2.4 63 2.8 NW 30 50 16 27 1006.5 1006.5 6.8
25/09:30pm 9.5 2.3 2.8 63 2.9 NW 30 46 16 25 1006.4 1006.4 6.8
25/09:04pm 10.0 3.3 3.5 64 2.8 WNW 28 46 15 25 1006.2 1006.2 6.8
25/09:00pm 9.9 3.2 3.4 64 2.8 NW 28 43 15 23 1006.2 1006.2 6.8
25/08:30pm 10.2 2.1 3.5 63 2.9 WNW 35 57 19 31 1005.9 1005.9 6.8
25/08:00pm 10.8 4.0 4.9 67 2.7 WNW 30 57 16 31 1005.3 1005.3 6.8
25/07:30pm 9.8 3.3 6.5 80 1.5 NNW 30 43 16 23 1004.5 1004.5 6.8
25/07:03pm 9.0 2.1 6.4 84 1.2 NW 32 48 17 26 1004.5 1004.5 6.8
25/07:00pm 8.8 1.7 6.4 85 1.1 WNW 33 50 18 27 1004.7 1004.7 6.8
25/06:30pm 9.6 2.1 6.5 81 1.4 WNW 35 59 19 32 1004.6 1004.6 4.2
25/06:26pm 10.6 3.6 6.7 77 1.8 WNW 33 56 18 30 1004.5 1004.5 2.4
25/06:24pm 10.9 3.8 6.6 75 2.0 NW 33 57 18 31 1004.1 1004.1 1.2
25/06:21pm 11.1 4.0 6.6 74 2.1 NW 33 59 18 32 1003.3 1003.3 0.6
25/06:00pm 12.0 2.9 6.1 67 2.8 NNW 43 61 23 33 1001.9 1001.9 0.0
25/05:30pm 12.2 3.0 5.6 64 3.1 NNW 43 63 23 34 1001.5 1001.5 0.0
25/05:00pm 12.2 2.0 5.1 62 3.3 N 48 70 26 38 1001.7 1001.7 0.0
25/04:30pm 12.2 3.3 4.9 61 3.3 N 41 63 22 34 1002.3 1002.3 0.0
25/04:08pm 12.5 3.1 4.5 58 3.6 NNW 43 63 23 34 1002.3 1002.3 0.0
25/04:00pm 12.7 3.3 4.2 56 3.9 NNW 43 57 23 31 1002.6 1002.6 0.0
25/03:30pm 13.2 4.6 4.4 55 4.0 N 39 57 21 31 1003.2 1003.2 0.0
25/03:16pm 13.0 5.6 4.2 55 4.0 NNW 32 50 17 27 1003.6 1003.6 0.0
25/03:00pm 12.8 4.0 3.5 53 4.2 N 39 52 21 28 1004.0 1004.0 0.0
25/02:39pm 12.6 4.7 4.6 58 3.7 N 35 54 19 29 1004.3 1004.3 0.0
25/02:30pm 12.8 4.1 4.0 55 4.0 N 39 54 21 29 1004.3 1004.3 0.0
25/02:01pm 13.3 5.8 4.2 54 4.1 NNW 33 52 18 28 1005.0 1005.0 0.0
25/02:00pm 13.1 5.2 4.3 55 4.0 NNW 35 52 19 28 1005.0 1005.0 0.0
25/01:30pm 13.5 6.4 3.6 51 4.5 NNW 30 44 16 24 1005.5 1005.5 0.0
25/01:00pm 12.6 5.9 3.8 55 4.0 NNW 28 39 15 21 1006.6 1006.6 0.0
25/12:30pm 12.5 5.4 3.7 55 3.9 NW 30 44 16 24 1007.3 1007.3 0.0
25/12:00pm 12.3 6.1 4.5 59 3.6 WNW 26 41 14 22 1007.5 1007.5 0.0
25/11:30am 12.1 5.8 5.7 65 3.0 WNW 28 46 15 25 1008.1 1008.1 0.0
25/11:14am 12.3 6.0 5.7 64 3.1 NW 28 46 15 25 1008.2 1008.2 0.0
25/11:00am 12.0 6.6 6.5 69 2.6 NW 24 37 13 20 1008.5 1008.5 0.0
25/10:30am 11.6 6.2 6.3 70 2.5 NW 24 35 13 19 1008.6 1008.6 0.0
25/10:00am 10.9 5.0 5.9 71 2.3 NW 26 35 14 19 1008.5 1008.5 0.0
25/09:30am 10.5 4.9 5.3 70 2.4 NW 24 35 13 19 1008.3 1008.3 0.0
25/09:00am 9.9 5.0 4.9 71 2.3 NNW 20 30 11 16 1008.2 1008.2 0.6
25/08:30am 9.7 4.4 4.9 72 2.2 NNW 22 32 12 17 1008.1 1008.1 0.6
25/08:00am 9.3 4.3 4.7 73 2.1 NNW 20 32 11 17 1007.8 1007.8 0.6
25/07:30am 9.1 3.7 4.3 72 2.1 NNW 22 32 12 17 1007.4 1007.4 0.6
25/07:00am 8.7 3.6 4.3 74 1.9 N 20 30 11 16 1006.9 1006.9 0.6
25/06:30am 8.3 3.2 4.1 75 1.8 NNW 20 24 11 13 1006.7 1006.7 0.6
25/06:00am 8.5 3.0 4.1 74 1.9 NNW 22 30 12 16 1006.3 1006.3 0.6
25/05:30am 8.3 2.8 3.8 73 1.9 N 22 30 12 16 1006.0 1006.0 0.6
25/05:00am 8.6 2.7 3.8 72 2.1 NNW 24 33 13 18 1005.8 1005.8 0.6
25/04:30am 8.3 2.4 3.9 74 1.9 NNW 24 32 13 17 1005.5 1005.5 0.6
25/04:00am 8.3 2.8 4.1 75 1.8 N 22 30 12 16 1005.3 1005.3 0.6
25/03:30am 8.1 2.2 4.1 76 1.7 N 24 32 13 17 1005.1 1005.1 0.6
25/03:00am 7.8 1.5 4.0 77 1.6 N 26 33 14 18 1005.0 1005.0 0.6
25/02:30am 7.6 1.8 4.4 80 1.4 N 24 32 13 17 1005.0 1005.0 0.6
25/02:00am 7.5 2.1 4.5 81 1.3 N 22 30 12 16 1005.0 1005.0 0.6
25/01:30am 7.6 1.8 4.4 80 1.4 N 24 32 13 17 1004.9 1004.9 0.6
25/01:00am 7.6 2.5 4.0 78 1.6 N 20 28 11 15 1005.0 1005.0 0.6
25/12:30am 7.9 2.8 4.3 78 1.6 N 20 28 11 15 1004.9 1004.9 0.6
25/12:00am 8.1 2.7 4.5 78 1.6 N 22 30 12 16 1004.9 1004.9 0.6
 
Date/Time
EST
Temp
°C
App
Temp
°C
Dew
Point
°C
Rel
Hum
%
Delta-T
°C
Wind Press
QNH
hPa
Press
MSL
hPa
Rain since
9am
mm
Dir  Spd
km/h
Gust
km/h
Spd
kts
Gust
kts
24/11:30pm 8.2 3.2 4.6 78 1.6 N 20 26 11 14 1004.9 1004.9 0.6
24/11:00pm 8.2 3.2 4.8 79 1.5 N 20 28 11 15 1004.7 1004.7 0.6
24/10:30pm 8.5 2.8 5.1 79 1.5 N 24 33 13 18 1004.6 1004.6 0.6
24/10:00pm 8.5 2.9 5.3 80 1.4 N 24 33 13 18 1004.8 1004.8 0.6
24/09:30pm 8.7 1.5 5.1 78 1.6 N 32 43 17 23 1004.9 1004.9 0.4
24/09:00pm 9.0 1.6 4.2 72 2.1 N 32 44 17 24 1004.9 1004.9 0.4
24/08:31pm 9.3 2.8 4.7 73 2.0 N 28 46 15 25 1004.6 1004.6 0.4
24/08:30pm 9.3 2.8 4.9 74 2.0 N 28 41 15 22 1004.6 1004.6 0.4
24/08:00pm 9.2 2.8 5.0 75 1.9 N 28 39 15 21 1005.0 1005.0 0.0
24/07:30pm 9.6 3.5 4.6 71 2.2 N 26 32 14 17 1004.9 1004.9 0.0
24/07:00pm 9.1 3.7 4.3 72 2.1 N 22 32 12 17 1004.7 1004.7 0.0
24/06:30pm 8.9 3.0 3.9 71 2.2 N 24 32 13 17 1004.7 1004.7 0.0
24/06:00pm 9.3 3.1 4.1 70 2.3 N 26 32 14 17 1004.7 1004.7 0.0
24/05:30pm 9.6 3.8 4.2 69 2.4 NNE 24 33 13 18 1004.7 1004.7 0.0
24/05:00pm 10.0 3.8 4.4 68 2.5 N 26 35 14 19 1005.2 1005.2 0.0
24/04:30pm 10.1 3.9 4.3 67 2.6 N 26 37 14 20 1005.5 1005.5 0.0
24/04:00pm 10.4 3.1 4.3 66 2.7 N 32 46 17 25 1005.7 1005.7 0.0
24/03:30pm 10.9 4.3 4.4 64 2.9 N 28 44 15 24 1005.9 1005.9 0.0
24/03:22pm 10.8 4.3 4.5 65 2.8 N 28 46 15 25 1006.1 1006.1 0.0
24/03:00pm 11.0 3.0 4.0 62 3.1 NNW 35 48 19 26 1006.2 1006.2 0.0
24/02:30pm 10.9 2.2 4.1 63 3.0 N 39 56 21 30 1006.2 1006.2 0.0
24/02:15pm 10.6 3.2 4.1 64 2.9 N 32 50 17 27 1006.5 1006.5 0.0
24/02:00pm 10.5 2.1 3.5 62 3.1 N 37 52 20 28 1006.7 1006.7 0.0
24/01:54pm 11.0 3.4 4.0 62 3.1 NNW 33 52 18 28 1006.5 1006.5 0.0
24/01:30pm 10.3 1.9 3.6 63 2.9 N 37 52 20 28 1006.9 1006.9 0.0
24/01:03pm 10.4 1.9 3.4 62 3.1 NNW 37 56 20 30 1007.3 1007.3 0.0
24/01:00pm 10.5 1.7 3.8 63 3.0 NNW 39 56 21 30 1007.4 1007.4 0.0
24/12:51pm 10.4 2.3 3.4 62 3.1 NNW 35 54 19 29 1007.4 1007.4 0.0
24/12:30pm 10.3 1.8 3.3 62 3.0 NNW 37 50 20 27 1007.8 1007.8 0.0
24/12:11pm 10.4 2.3 3.4 62 3.1 NNW 35 54 19 29 1008.3 1008.3 0.0
24/12:00pm 10.3 2.3 3.6 63 2.9 N 35 50 19 27 1008.4 1008.4 0.0
24/11:30am 9.6 2.5 3.8 67 2.5 N 30 41 16 22 1009.0 1009.0 0.0
24/11:00am 9.0 1.9 3.4 68 2.4 N 30 41 16 22 1009.8 1009.8 0.0
24/10:30am 8.8 1.3 3.4 69 2.3 N 32 43 17 23 1009.9 1009.9 0.0
24/10:00am 8.7 1.6 3.7 71 2.2 N 30 39 16 21 1009.9 1009.9 0.0
24/09:30am 7.6 0.8 2.9 72 2.0 N 28 35 15 19 1010.2 1010.2 0.0
24/09:00am 6.8 1.4 2.7 75 1.7 N 20 28 11 15 1010.5 1010.5 1.4
24/08:30am 6.1 0.3 2.2 76 1.6 N 22 28 12 15 1010.6 1010.6 1.4
24/08:00am 5.5 -0.3 2.2 79 1.3 N 22 28 12 15 1010.6 1010.6 1.4
24/07:30am 5.0 -0.9 1.8 80 1.3 N 22 30 12 16 1010.7 1010.7 1.4
24/07:00am 5.1 -0.4 1.9 80 1.3 N 20 26 11 14 1010.7 1010.7 1.4
24/06:30am 5.5 0.0 2.0 78 1.4 N 20 28 11 15 1010.5 1010.5 1.4
24/06:00am 5.0 -0.3 1.7 79 1.3 N 19 26 10 14 1010.7 1010.7 1.4
24/05:30am 5.1 -0.2 1.6 78 1.4 N 19 26 10 14 1010.9 1010.9 1.4
24/05:00am 5.5 0.6 2.0 78 1.4 NNW 17 24 9 13 1011.2 1011.2 1.4
24/04:30am 5.0 0.1 1.7 79 1.3 NNW 17 20 9 11 1011.6 1011.6 1.4
24/04:00am 5.0 -0.4 1.5 78 1.4 NNW 19 24 10 13 1011.7 1011.7 1.4
24/03:30am 5.1 0.2 1.9 80 1.3 N 17 24 9 13 1011.8 1011.8 1.4
24/03:00am 4.7 0.5 1.9 82 1.1 N 13 15 7 8 1011.9 1011.9 1.4
24/02:30am 4.6 1.2 2.0 83 1.0 NNW 9 11 5 6 1012.1 1012.1 1.4
24/02:00am 4.9 1.5 1.9 81 1.2 N 9 11 5 6 1012.2 1012.2 1.4
24/01:30am 5.6 1.5 2.4 80 1.3 NNW 13 17 7 9 1012.2 1012.2 1.4
24/01:00am 5.9 2.2 2.4 78 1.4 NNW 11 13 6 7 1012.2 1012.2 1.4
24/12:30am 6.4 2.4 2.9 78 1.5 NNW 13 17 7 9 1012.4 1012.4 1.4
24/12:00am 7.1 2.8 3.3 77 1.6 NW 15 20 8 11 1012.6 1012.6 1.4
 
Date/Time
EST
Temp
°C
App
Temp
°C
Dew
Point
°C
Rel
Hum
%
Delta-T
°C
Wind Press
QNH
hPa
Press
MSL
hPa
Rain since
9am
mm
Dir  Spd
km/h
Gust
km/h
Spd
kts
Gust
kts
23/11:30pm 7.3 3.4 3.5 77 1.6 NW 13 15 7 8 1012.7 1012.7 1.4
23/11:00pm 7.6 3.0 3.6 76 1.7 NW 17 22 9 12 1012.8 1012.8 1.4
23/10:30pm 7.9 2.7 3.6 74 1.8 NW 20 32 11 17 1012.6 1012.6 1.4
23/10:00pm 7.9 2.9 3.8 75 1.8 NW 19 30 10 16 1012.6 1012.6 1.4
23/09:30pm 8.2 3.1 4.0 75 1.8 WNW 20 35 11 19 1012.6 1012.6 1.4
23/09:00pm 8.2 2.3 3.9 74 1.9 WNW 24 39 13 21 1012.3 1012.3 1.4
23/08:30pm 8.0 2.1 3.8 75 1.8 WNW 24 37 13 20 1012.2 1012.2 1.4
23/08:00pm 7.8 2.6 3.8 76 1.7 WNW 20 32 11 17 1011.9 1011.9 1.4
23/07:30pm 8.1 2.6 3.9 75 1.8 WNW 22 35 12 19 1011.9 1011.9 1.4
23/07:00pm 8.2 2.8 4.4 77 1.7 WNW 22 33 12 18 1011.5 1011.5 1.4
23/06:30pm 7.9 2.8 4.1 77 1.6 WNW 20 35 11 19 1011.1 1011.1 1.4
23/06:00pm 7.5 0.9 4.1 79 1.5 WNW 28 39 15 21 1010.6 1010.6 1.4
23/05:57pm 7.6 1.0 4.2 79 1.5 WNW 28 39 15 21 1010.6 1010.6 1.4
23/05:50pm 7.8 1.2 4.4 79 1.5 WNW 28 46 15 25 1010.5 1010.5 1.4
23/05:46pm 7.9 1.7 4.3 78 1.6 W 26 46 14 25 1010.5 1010.5 1.4
23/05:30pm 8.7 3.6 3.9 72 2.1 WNW 20 30 11 16 1010.3 1010.3 0.8
23/05:00pm 8.6 2.7 3.8 72 2.1 WNW 24 41 13 22 1009.7 1009.7 0.8
23/04:30pm 8.6 1.9 3.6 71 2.2 WNW 28 41 15 22 1009.3 1009.3 0.8
23/04:00pm 9.0 3.1 4.0 71 2.2 WNW 24 43 13 23 1009.0 1009.0 0.8
23/03:30pm 9.0 1.8 3.2 67 2.5 W 30 46 16 25 1008.7 1008.7 0.8
23/03:00pm 9.1 3.3 4.5 73 2.0 W 24 33 13 18 1008.3 1008.3 0.8
23/02:30pm 9.1 2.4 3.9 70 2.3 W 28 43 15 23 1007.7 1007.7 0.8
23/02:00pm 9.5 3.4 4.7 72 2.1 W 26 39 14 21 1007.4 1007.4 0.8
23/01:54pm 9.3 4.6 5.9 79 1.6 W 20 33 11 18 1007.2 1007.2 0.8
23/01:37pm 7.1 -0.4 3.5 78 1.5 WSW 32 52 17 28 1007.4 1007.4 0.6
23/01:36pm 7.1 -0.4 3.5 78 1.5 WSW 32 52 17 28 1007.4 1007.4 0.6
23/01:30pm 7.8 0.9 2.5 69 2.2 W 28 43 15 23 1007.2 1007.2 0.2
23/01:00pm 9.7 2.5 3.2 64 2.8 WNW 30 44 16 24 1006.6 1006.6 0.0
23/12:30pm 9.7 2.1 2.6 61 3.0 WNW 32 52 17 28 1006.6 1006.6 0.0
23/12:00pm 9.0 1.3 2.3 63 2.8 WNW 32 50 17 27 1006.6 1006.6 0.0
23/11:53am 9.0 1.6 2.1 62 2.9 WNW 30 50 16 27 1006.6 1006.6 0.0
23/11:30am 9.0 1.7 2.3 63 2.8 WNW 30 46 16 25 1006.7 1006.7 0.0
23/11:01am 9.0 1.2 1.4 59 3.1 WNW 32 50 17 27 1006.5 1006.5 0.0
23/11:00am 9.2 1.2 1.9 60 3.1 WNW 33 50 18 27 1006.5 1006.5 0.0
23/10:34am 9.3 2.3 1.7 59 3.2 WNW 28 50 15 27 1006.0 1006.0 0.0
23/10:30am 9.2 1.7 1.4 58 3.2 W 30 44 16 24 1006.0 1006.0 0.0
23/10:01am 9.2 2.0 0.9 56 3.4 WNW 28 46 15 25 1005.2 1005.2 0.0
23/10:00am 9.2 2.4 0.9 56 3.4 WNW 26 46 14 25 1005.2 1005.2 0.0
23/09:30am 9.3 2.9 1.0 56 3.4 W 24 37 13 20 1004.5 1004.5 0.0
23/09:00am 9.0 1.2 1.4 59 3.1 W 32 50 17 27 1003.9 1003.9 17.8
23/08:52am 8.9 1.9 1.8 61 2.9 W 28 46 15 25 1003.7 1003.7 17.8
23/08:30am 8.5 1.7 2.9 68 2.4 WNW 28 41 15 22 1003.1 1003.1 17.8
23/08:00am 8.1 2.2 3.9 75 1.8 W 24 35 13 19 1002.6 1002.6 17.8
23/07:30am 8.2 1.5 3.9 74 1.9 W 28 39 15 21 1002.0 1002.0 17.8
23/07:00am 8.4 1.9 4.6 77 1.7 W 28 41 15 22 1001.1 1001.1 17.8
23/06:34am 8.4 2.0 5.2 80 1.4 W 28 50 15 27 1000.4 1000.4 17.8
23/06:30am 8.4 2.0 5.2 80 1.4 W 28 41 15 22 1000.2 1000.2 17.8

Other Formats:

Comma delimited format used in spreadsheet applications
http://www.bom.gov.au/fwo/IDV60801/IDV60801.94870.axf

JavaScript Object Notation format (JSON) in row-major order
http://www.bom.gov.au/fwo/IDV60801/IDV60801.94870.json